AUA62W LDSP-LOWW
Flight info
| Callsign | AUA62W |
|---|---|
| Flight time | 0h 53m |
| Altitude | 36000 |
| Route | SIRMI DCT RUDIK DCT OBUTI OBUTI2W |
| Aircraft | A320/M-SDE3FGHIRWY/LB1 |
Departure
| Time | 2026-05-06 17:52 |
|---|---|
| Airport | Split Saint Jerome Airport (LDSP) |
Arrival
| Time | 2026-05-06 18:46 |
|---|---|
| Airport | Vienna International Airport (LOWW) |
| Time | Latitude | Longitude | Altitude | Speed | Heading |
|---|---|---|---|---|---|
| 2026-05-06 17:36 | 43.53659 | 16.29754 | 68 ft | 0 kts | 92° |
| 2026-05-06 17:46 | 43.53659 | 16.29758 | 68 ft | 3 kts | 88° |
| 2026-05-06 17:46 | 43.53676 | 16.29760 | 68 ft | 2 kts | 336° |
| 2026-05-06 17:46 | 43.53688 | 16.29695 | 68 ft | 10 kts | 262° |
| 2026-05-06 17:47 | 43.53672 | 16.29635 | 66 ft | 0 kts | 251° |
| 2026-05-06 17:49 | 43.53683 | 16.29590 | 67 ft | 12 kts | 298° |
| 2026-05-06 17:49 | 43.53690 | 16.29452 | 83 ft | 20 kts | 252° |
| 2026-05-06 17:49 | 43.53604 | 16.29271 | 80 ft | 25 kts | 232° |
| 2026-05-06 17:50 | 43.53499 | 16.29082 | 82 ft | 24 kts | 232° |
| 2026-05-06 17:50 | 43.53396 | 16.28895 | 83 ft | 25 kts | 232° |
| 2026-05-06 17:50 | 43.53305 | 16.28731 | 83 ft | 19 kts | 232° |
| 2026-05-06 17:50 | 43.53227 | 16.28632 | 71 ft | 10 kts | 201° |
| 2026-05-06 17:51 | 43.53206 | 16.28590 | 78 ft | 3 kts | 297° |
| 2026-05-06 17:51 | 43.53228 | 16.28592 | 72 ft | 4 kts | 33° |
| 2026-05-06 17:51 | 43.53237 | 16.28608 | 78 ft | 0 kts | 53° |
| 2026-05-06 17:52 | 43.53263 | 16.28656 | 79 ft | 30 kts | 52° |
| 2026-05-06 17:52 | 43.53550 | 16.29174 | 83 ft | 103 kts | 52° |
| 2026-05-06 17:52 | 43.54104 | 16.30168 | 126 ft | 150 kts | 56° |
| 2026-05-06 17:52 | 43.54742 | 16.31303 | 817 ft | 150 kts | 56° |
| 2026-05-06 17:53 | 43.55368 | 16.32451 | 1572 ft | 150 kts | 65° |
| 2026-05-06 17:53 | 43.55688 | 16.33765 | 2261 ft | 142 kts | 94° |
| 2026-05-06 17:53 | 43.55547 | 16.35071 | 2892 ft | 138 kts | 115° |
| 2026-05-06 17:53 | 43.54969 | 16.36209 | 3251 ft | 155 kts | 143° |
| 2026-05-06 17:54 | 43.53956 | 16.36856 | 3666 ft | 171 kts | 170° |
| 2026-05-06 17:54 | 43.52732 | 16.36979 | 4194 ft | 180 kts | 168° |
| 2026-05-06 17:54 | 43.51574 | 16.37647 | 4879 ft | 182 kts | 154° |
| 2026-05-06 17:54 | 43.50452 | 16.38475 | 5510 ft | 184 kts | 155° |
| 2026-05-06 17:55 | 43.49313 | 16.39303 | 6127 ft | 187 kts | 155° |
| 2026-05-06 17:55 | 43.48147 | 16.40152 | 6707 ft | 192 kts | 155° |
| 2026-05-06 17:55 | 43.46944 | 16.40983 | 7273 ft | 194 kts | 166° |
| 2026-05-06 17:55 | 43.45636 | 16.40859 | 7816 ft | 194 kts | 207° |
| 2026-05-06 17:56 | 43.44581 | 16.39632 | 8196 ft | 212 kts | 234° |
| 2026-05-06 17:56 | 43.44147 | 16.37574 | 8383 ft | 245 kts | 272° |
| 2026-05-06 17:56 | 43.44820 | 16.35293 | 8784 ft | 277 kts | 308° |
| 2026-05-06 17:56 | 43.46467 | 16.33783 | 9356 ft | 297 kts | 341° |
| 2026-05-06 17:57 | 43.48528 | 16.33329 | 10194 ft | 305 kts | 355° |
| 2026-05-06 17:57 | 43.50718 | 16.33365 | 10626 ft | 326 kts | 1° |
| 2026-05-06 17:57 | 43.53061 | 16.33573 | 11029 ft | 344 kts | 2° |
| 2026-05-06 17:57 | 43.55473 | 16.33758 | 11731 ft | 350 kts | 0° |
| 2026-05-06 17:58 | 43.57927 | 16.33833 | 12526 ft | 354 kts | 358° |
| 2026-05-06 17:58 | 43.60406 | 16.33793 | 13307 ft | 358 kts | 356° |
| 2026-05-06 17:58 | 43.62909 | 16.33671 | 14042 ft | 363 kts | 355° |
| 2026-05-06 17:58 | 43.65445 | 16.33503 | 14712 ft | 367 kts | 354° |
| 2026-05-06 17:59 | 43.68009 | 16.33318 | 15384 ft | 371 kts | 354° |
| 2026-05-06 17:59 | 43.70602 | 16.33132 | 16050 ft | 375 kts | 354° |
| 2026-05-06 17:59 | 43.73217 | 16.32952 | 16718 ft | 379 kts | 354° |
| 2026-05-06 17:59 | 43.75865 | 16.32778 | 17385 ft | 382 kts | 354° |
| 2026-05-06 18:00 | 43.78540 | 16.32608 | 18028 ft | 387 kts | 354° |
| 2026-05-06 18:00 | 43.81240 | 16.32437 | 18639 ft | 391 kts | 354° |
| 2026-05-06 18:00 | 43.83969 | 16.32269 | 19237 ft | 394 kts | 354° |
| 2026-05-06 18:00 | 43.86713 | 16.32102 | 19860 ft | 396 kts | 354° |
| 2026-05-06 18:01 | 43.89477 | 16.31938 | 20486 ft | 398 kts | 354° |
| 2026-05-06 18:01 | 43.92249 | 16.31774 | 21103 ft | 401 kts | 354° |
| 2026-05-06 18:01 | 43.95044 | 16.31610 | 21737 ft | 403 kts | 354° |
| 2026-05-06 18:01 | 43.97851 | 16.31442 | 22353 ft | 405 kts | 353° |
| 2026-05-06 18:02 | 44.00675 | 16.31267 | 22956 ft | 407 kts | 353° |
| 2026-05-06 18:02 | 44.03517 | 16.31086 | 23544 ft | 410 kts | 353° |
| 2026-05-06 18:02 | 44.06370 | 16.30902 | 23993 ft | 412 kts | 353° |
| 2026-05-06 18:02 | 44.09250 | 16.30717 | 24425 ft | 416 kts | 353° |
| 2026-05-06 18:03 | 44.12144 | 16.30533 | 24877 ft | 419 kts | 353° |
| 2026-05-06 18:03 | 44.15066 | 16.30350 | 25319 ft | 422 kts | 353° |
| 2026-05-06 18:03 | 44.18014 | 16.30236 | 25760 ft | 425 kts | 354° |
| 2026-05-06 18:03 | 44.20988 | 16.30216 | 26184 ft | 429 kts | 355° |
| 2026-05-06 18:04 | 44.23977 | 16.30252 | 26583 ft | 432 kts | 355° |
| 2026-05-06 18:04 | 44.26992 | 16.30308 | 26956 ft | 434 kts | 355° |
| 2026-05-06 18:04 | 44.30025 | 16.30360 | 27348 ft | 437 kts | 355° |
| 2026-05-06 18:04 | 44.33076 | 16.30394 | 27727 ft | 439 kts | 355° |
| 2026-05-06 18:05 | 44.36139 | 16.30413 | 28109 ft | 442 kts | 354° |
| 2026-05-06 18:05 | 44.39222 | 16.30419 | 28440 ft | 444 kts | 354° |
| 2026-05-06 18:05 | 44.42321 | 16.30415 | 28771 ft | 446 kts | 354° |
| 2026-05-06 18:05 | 44.45429 | 16.30408 | 29141 ft | 449 kts | 354° |
| 2026-05-06 18:06 | 44.48561 | 16.30406 | 29503 ft | 451 kts | 354° |
| 2026-05-06 18:06 | 44.51707 | 16.30413 | 29848 ft | 453 kts | 354° |
| 2026-05-06 18:06 | 44.54866 | 16.30419 | 30147 ft | 455 kts | 354° |
| 2026-05-06 18:06 | 44.58040 | 16.30422 | 30426 ft | 457 kts | 354° |
| 2026-05-06 18:07 | 44.61221 | 16.30425 | 30701 ft | 459 kts | 354° |
| 2026-05-06 18:07 | 44.64425 | 16.30429 | 30972 ft | 461 kts | 354° |
| 2026-05-06 18:07 | 44.67644 | 16.30434 | 31227 ft | 463 kts | 354° |
| 2026-05-06 18:07 | 44.70876 | 16.30440 | 31476 ft | 465 kts | 354° |
| 2026-05-06 18:08 | 44.74118 | 16.30449 | 31785 ft | 466 kts | 354° |
| 2026-05-06 18:08 | 44.77349 | 16.30459 | 32174 ft | 464 kts | 354° |
| 2026-05-06 18:08 | 44.80577 | 16.30469 | 32543 ft | 463 kts | 354° |
| 2026-05-06 18:08 | 44.83800 | 16.30475 | 32872 ft | 462 kts | 354° |
| 2026-05-06 18:09 | 44.87009 | 16.30479 | 33200 ft | 462 kts | 354° |
| 2026-05-06 18:09 | 44.90223 | 16.30486 | 33556 ft | 461 kts | 354° |
| 2026-05-06 18:09 | 44.93432 | 16.30492 | 33913 ft | 461 kts | 354° |
| 2026-05-06 18:09 | 44.96629 | 16.30498 | 34228 ft | 460 kts | 355° |
| 2026-05-06 18:10 | 44.99829 | 16.30504 | 34536 ft | 459 kts | 355° |
| 2026-05-06 18:10 | 45.03020 | 16.30486 | 34844 ft | 458 kts | 354° |
| 2026-05-06 18:10 | 45.06195 | 16.30429 | 35128 ft | 457 kts | 354° |
| 2026-05-06 18:10 | 45.09371 | 16.30349 | 35397 ft | 456 kts | 354° |
| 2026-05-06 18:11 | 45.12535 | 16.30257 | 35677 ft | 455 kts | 354° |
| 2026-05-06 18:11 | 45.14637 | 16.30192 | 35839 ft | 455 kts | 354° |
| 2026-05-06 18:11 | 45.21990 | 16.29995 | 35931 ft | 449 kts | 354° |
| 2026-05-06 18:12 | 45.28236 | 16.29865 | 35928 ft | 448 kts | 355° |
| 2026-05-06 18:12 | 45.33419 | 16.29757 | 35931 ft | 448 kts | 355° |
| 2026-05-06 18:13 | 45.39647 | 16.29619 | 35926 ft | 448 kts | 355° |
| 2026-05-06 18:13 | 45.45871 | 16.29479 | 35927 ft | 447 kts | 355° |
| 2026-05-06 18:14 | 45.52100 | 16.29339 | 35929 ft | 447 kts | 355° |
| 2026-05-06 18:14 | 45.58320 | 16.29205 | 35930 ft | 447 kts | 355° |
| 2026-05-06 18:15 | 45.64543 | 16.29067 | 35933 ft | 447 kts | 355° |
| 2026-05-06 18:15 | 45.70758 | 16.28924 | 35931 ft | 447 kts | 355° |
| 2026-05-06 18:16 | 45.76975 | 16.28783 | 35936 ft | 447 kts | 355° |
| 2026-05-06 18:16 | 45.83185 | 16.28646 | 35935 ft | 446 kts | 355° |
| 2026-05-06 18:17 | 45.89399 | 16.28510 | 35929 ft | 446 kts | 354° |
| 2026-05-06 18:17 | 45.95607 | 16.28365 | 35924 ft | 446 kts | 355° |
| 2026-05-06 18:18 | 46.01821 | 16.28221 | 35914 ft | 447 kts | 355° |
| 2026-05-06 18:18 | 46.08041 | 16.28078 | 35910 ft | 447 kts | 355° |
| 2026-05-06 18:19 | 46.14259 | 16.27935 | 35904 ft | 447 kts | 354° |
| 2026-05-06 18:19 | 46.20527 | 16.27800 | 35901 ft | 448 kts | 355° |
| 2026-05-06 18:20 | 46.26729 | 16.27665 | 35855 ft | 450 kts | 354° |
| 2026-05-06 18:20 | 46.29899 | 16.27592 | 35593 ft | 450 kts | 354° |
| 2026-05-06 18:20 | 46.32993 | 16.27516 | 35329 ft | 451 kts | 354° |
| 2026-05-06 18:21 | 46.36169 | 16.27435 | 34863 ft | 451 kts | 354° |
| 2026-05-06 18:21 | 46.39277 | 16.27067 | 34397 ft | 445 kts | 346° |
| 2026-05-06 18:21 | 46.42286 | 16.26359 | 33944 ft | 442 kts | 346° |
| 2026-05-06 18:21 | 46.45351 | 16.25635 | 33439 ft | 439 kts | 346° |
| 2026-05-06 18:22 | 46.48361 | 16.24929 | 32912 ft | 437 kts | 346° |
| 2026-05-06 18:22 | 46.51352 | 16.24227 | 32411 ft | 434 kts | 346° |
| 2026-05-06 18:22 | 46.54316 | 16.23529 | 31913 ft | 431 kts | 346° |
| 2026-05-06 18:22 | 46.57266 | 16.22831 | 31425 ft | 428 kts | 346° |
| 2026-05-06 18:23 | 46.60196 | 16.22134 | 30961 ft | 425 kts | 346° |
| 2026-05-06 18:23 | 46.63131 | 16.21429 | 30485 ft | 437 kts | 346° |
| 2026-05-06 18:23 | 46.66202 | 16.20681 | 30011 ft | 454 kts | 346° |
| 2026-05-06 18:23 | 46.69336 | 16.19925 | 29478 ft | 457 kts | 346° |
| 2026-05-06 18:24 | 46.72475 | 16.19180 | 28915 ft | 456 kts | 346° |
| 2026-05-06 18:24 | 46.75600 | 16.18443 | 28367 ft | 454 kts | 346° |
| 2026-05-06 18:24 | 46.78703 | 16.17710 | 27835 ft | 451 kts | 347° |
| 2026-05-06 18:24 | 46.81795 | 16.16978 | 27309 ft | 449 kts | 347° |
| 2026-05-06 18:25 | 46.84869 | 16.16248 | 26792 ft | 446 kts | 347° |
| 2026-05-06 18:25 | 46.87922 | 16.15517 | 26284 ft | 444 kts | 347° |
| 2026-05-06 18:25 | 46.90965 | 16.14782 | 25785 ft | 442 kts | 347° |
| 2026-05-06 18:25 | 46.93994 | 16.14047 | 25292 ft | 440 kts | 347° |
| 2026-05-06 18:26 | 46.97002 | 16.13318 | 24815 ft | 438 kts | 347° |
| 2026-05-06 18:26 | 47.00005 | 16.12594 | 24340 ft | 436 kts | 347° |
| 2026-05-06 18:26 | 47.02994 | 16.11874 | 23871 ft | 434 kts | 347° |
| 2026-05-06 18:26 | 47.05961 | 16.11154 | 23412 ft | 432 kts | 347° |
| 2026-05-06 18:27 | 47.08921 | 16.10432 | 22865 ft | 430 kts | 347° |
| 2026-05-06 18:27 | 47.11861 | 16.09724 | 22338 ft | 427 kts | 348° |
| 2026-05-06 18:27 | 47.14821 | 16.09610 | 21792 ft | 428 kts | 4° |
| 2026-05-06 18:27 | 47.17765 | 16.10224 | 21279 ft | 426 kts | 6° |
| 2026-05-06 18:28 | 47.20686 | 16.10865 | 20770 ft | 423 kts | 6° |
| 2026-05-06 18:28 | 47.23586 | 16.11508 | 20268 ft | 419 kts | 6° |
| 2026-05-06 18:28 | 47.26455 | 16.12149 | 19772 ft | 416 kts | 6° |
| 2026-05-06 18:28 | 47.29307 | 16.12789 | 19290 ft | 413 kts | 6° |
| 2026-05-06 18:29 | 47.32134 | 16.13423 | 18808 ft | 409 kts | 6° |
| 2026-05-06 18:29 | 47.34932 | 16.14050 | 18503 ft | 405 kts | 6° |
| 2026-05-06 18:29 | 47.37710 | 16.14670 | 18263 ft | 404 kts | 6° |
| 2026-05-06 18:29 | 47.40481 | 16.15286 | 17990 ft | 400 kts | 6° |
| 2026-05-06 18:30 | 47.43238 | 16.15899 | 17462 ft | 397 kts | 6° |
| 2026-05-06 18:30 | 47.45948 | 16.16500 | 16930 ft | 395 kts | 6° |
| 2026-05-06 18:30 | 47.48662 | 16.17105 | 16413 ft | 393 kts | 6° |
| 2026-05-06 18:30 | 47.51358 | 16.17709 | 15912 ft | 391 kts | 6° |
| 2026-05-06 18:31 | 47.54033 | 16.18311 | 15423 ft | 388 kts | 6° |
| 2026-05-06 18:31 | 47.56698 | 16.18875 | 14944 ft | 386 kts | 5° |
| 2026-05-06 18:31 | 47.59358 | 16.19294 | 14448 ft | 383 kts | 3° |
| 2026-05-06 18:31 | 47.62000 | 16.19608 | 13998 ft | 379 kts | 1° |
| 2026-05-06 18:32 | 47.64624 | 16.19870 | 13531 ft | 377 kts | 1° |
| 2026-05-06 18:32 | 47.67224 | 16.20122 | 13022 ft | 373 kts | 1° |
| 2026-05-06 18:32 | 47.69807 | 16.20388 | 12644 ft | 372 kts | 1° |
| 2026-05-06 18:32 | 47.72385 | 16.20676 | 12380 ft | 371 kts | 2° |
| 2026-05-06 18:33 | 47.74952 | 16.20978 | 12123 ft | 369 kts | 2° |
| 2026-05-06 18:33 | 47.77483 | 16.21288 | 11682 ft | 365 kts | 2° |
| 2026-05-06 18:33 | 47.80003 | 16.21603 | 11178 ft | 362 kts | 2° |
| 2026-05-06 18:33 | 47.82497 | 16.21912 | 10691 ft | 359 kts | 2° |
| 2026-05-06 18:34 | 47.84972 | 16.22214 | 10212 ft | 355 kts | 2° |
| 2026-05-06 18:34 | 47.87423 | 16.22511 | 9736 ft | 352 kts | 2° |
| 2026-05-06 18:34 | 47.89855 | 16.22806 | 9226 ft | 349 kts | 2° |
| 2026-05-06 18:34 | 47.92264 | 16.23097 | 8690 ft | 346 kts | 2° |
| 2026-05-06 18:35 | 47.94652 | 16.23386 | 8169 ft | 343 kts | 2° |
| 2026-05-06 18:35 | 47.97022 | 16.23598 | 7647 ft | 339 kts | 354° |
| 2026-05-06 18:35 | 47.99298 | 16.22923 | 7375 ft | 332 kts | 338° |
| 2026-05-06 18:35 | 48.01481 | 16.21794 | 7128 ft | 332 kts | 337° |
| 2026-05-06 18:36 | 48.03659 | 16.20657 | 6968 ft | 331 kts | 337° |
| 2026-05-06 18:36 | 48.05821 | 16.19525 | 6961 ft | 330 kts | 337° |
| 2026-05-06 18:36 | 48.07974 | 16.18396 | 6622 ft | 325 kts | 337° |
| 2026-05-06 18:36 | 48.10065 | 16.17301 | 6378 ft | 313 kts | 338° |
| 2026-05-06 18:37 | 48.12088 | 16.16251 | 6144 ft | 302 kts | 337° |
| 2026-05-06 18:37 | 48.13417 | 16.15568 | 6018 ft | 294 kts | 337° |
| 2026-05-06 18:37 | 48.15766 | 16.13944 | 5953 ft | 268 kts | 326° |
| 2026-05-06 18:37 | 48.17329 | 16.12598 | 5960 ft | 250 kts | 326° |
| 2026-05-06 18:38 | 48.18796 | 16.11323 | 5801 ft | 240 kts | 325° |
| 2026-05-06 18:38 | 48.20216 | 16.10096 | 5547 ft | 230 kts | 326° |
| 2026-05-06 18:38 | 48.21586 | 16.08916 | 5302 ft | 226 kts | 325° |
| 2026-05-06 18:38 | 48.23046 | 16.08073 | 5042 ft | 230 kts | 351° |
| 2026-05-06 18:39 | 48.24565 | 16.08589 | 4951 ft | 224 kts | 35° |
| 2026-05-06 18:39 | 48.25517 | 16.10350 | 4977 ft | 218 kts | 71° |
| 2026-05-06 18:39 | 48.25515 | 16.12512 | 4960 ft | 206 kts | 118° |
| 2026-05-06 18:40 | 48.24222 | 16.16311 | 4960 ft | 205 kts | 121° |
| 2026-05-06 18:40 | 48.23606 | 16.18233 | 4958 ft | 204 kts | 121° |
| 2026-05-06 18:40 | 48.22989 | 16.20159 | 4961 ft | 204 kts | 121° |
| 2026-05-06 18:40 | 48.22373 | 16.22079 | 4960 ft | 205 kts | 121° |
| 2026-05-06 18:41 | 48.21753 | 16.24008 | 4860 ft | 205 kts | 122° |
| 2026-05-06 18:41 | 48.21138 | 16.25925 | 4626 ft | 203 kts | 122° |
| 2026-05-06 18:41 | 48.20528 | 16.27821 | 4358 ft | 202 kts | 122° |
| 2026-05-06 18:41 | 48.19922 | 16.29706 | 4099 ft | 200 kts | 123° |
| 2026-05-06 18:42 | 48.19321 | 16.31573 | 3826 ft | 197 kts | 122° |
| 2026-05-06 18:42 | 48.18727 | 16.33416 | 3560 ft | 195 kts | 123° |
| 2026-05-06 18:42 | 48.18140 | 16.35237 | 3300 ft | 193 kts | 124° |
| 2026-05-06 18:42 | 48.17560 | 16.37035 | 3044 ft | 188 kts | 123° |
| 2026-05-06 18:43 | 48.17000 | 16.38770 | 2788 ft | 182 kts | 123° |
| 2026-05-06 18:43 | 48.16468 | 16.40424 | 2543 ft | 170 kts | 124° |
| 2026-05-06 18:43 | 48.15964 | 16.41982 | 2334 ft | 163 kts | 125° |
| 2026-05-06 18:43 | 48.15486 | 16.43462 | 2107 ft | 151 kts | 126° |
| 2026-05-06 18:44 | 48.15048 | 16.44816 | 1919 ft | 140 kts | 124° |
| 2026-05-06 18:44 | 48.14633 | 16.46094 | 1740 ft | 134 kts | 126° |
| 2026-05-06 18:44 | 48.14230 | 16.47334 | 1546 ft | 131 kts | 125° |
| 2026-05-06 18:44 | 48.13831 | 16.48558 | 1358 ft | 131 kts | 124° |
| 2026-05-06 18:45 | 48.13430 | 16.49791 | 1175 ft | 131 kts | 122° |
| 2026-05-06 18:45 | 48.13028 | 16.51011 | 986 ft | 131 kts | 121° |
| 2026-05-06 18:45 | 48.12636 | 16.52238 | 800 ft | 131 kts | 123° |
| 2026-05-06 18:45 | 48.12374 | 16.53056 | 685 ft | 131 kts | 122° |
| 2026-05-06 18:46 | 48.11881 | 16.54562 | 614 ft | 97 kts | 115° |
| 2026-05-06 18:46 | 48.11663 | 16.55235 | 616 ft | 44 kts | 116° |
| 2026-05-06 18:46 | 48.11555 | 16.55566 | 616 ft | 30 kts | 114° |
| 2026-05-06 18:46 | 48.11503 | 16.55843 | 610 ft | 25 kts | 95° |
| 2026-05-06 18:47 | 48.11507 | 16.56062 | 610 ft | 18 kts | 83° |
| 2026-05-06 18:47 | 48.11584 | 16.56172 | 613 ft | 12 kts | 24° |
| 2026-05-06 18:47 | 48.11631 | 16.56248 | 616 ft | 10 kts | 91° |
| 2026-05-06 18:47 | 48.11603 | 16.56346 | 610 ft | 13 kts | 115° |
| 2026-05-06 18:48 | 48.11550 | 16.56508 | 617 ft | 20 kts | 116° |
| 2026-05-06 18:48 | 48.11487 | 16.56701 | 610 ft | 21 kts | 116° |
| 2026-05-06 18:48 | 48.11420 | 16.56909 | 615 ft | 23 kts | 115° |
| 2026-05-06 18:48 | 48.11350 | 16.57123 | 621 ft | 21 kts | 116° |
| 2026-05-06 18:49 | 48.11303 | 16.57278 | 610 ft | 14 kts | 99° |
| 2026-05-06 18:49 | 48.11378 | 16.57378 | 610 ft | 18 kts | 26° |
| 2026-05-06 18:49 | 48.11486 | 16.57456 | 610 ft | 17 kts | 22° |
| 2026-05-06 18:49 | 48.11590 | 16.57438 | 614 ft | 14 kts | 343° |
| 2026-05-06 18:50 | 48.11663 | 16.57407 | 620 ft | 7 kts | 344° |
| 2026-05-06 18:50 | 48.11696 | 16.57393 | 618 ft | 3 kts | 344° |
| 2026-05-06 18:50 | 48.11711 | 16.57387 | 612 ft | 3 kts | 344° |
| 2026-05-06 18:50 | 48.11725 | 16.57381 | 623 ft | 2 kts | 344° |
| 2026-05-06 18:51 | 48.11733 | 16.57377 | 615 ft | 0 kts | 344° |
| 2026-05-06 18:51 | 48.11735 | 16.57376 | 614 ft | 0 kts | 344° |
| 2026-05-06 18:52 | 48.11741 | 16.57374 | 612 ft | 2 kts | 344° |
| 2026-05-06 18:52 | 48.11771 | 16.57361 | 618 ft | 6 kts | 344° |
| 2026-05-06 18:52 | 48.11814 | 16.57327 | 610 ft | 9 kts | 312° |
| 2026-05-06 18:53 | 48.11853 | 16.57225 | 614 ft | 12 kts | 304° |
| 2026-05-06 18:53 | 48.11904 | 16.57132 | 612 ft | 10 kts | 296° |
| 2026-05-06 18:53 | 48.11932 | 16.57046 | 614 ft | 7 kts | 296° |
| 2026-05-06 18:53 | 48.11953 | 16.57018 | 616 ft | 3 kts | 346° |
| 2026-05-06 18:54 | 48.11981 | 16.57032 | 610 ft | 4 kts | 25° |
| 2026-05-06 18:54 | 48.11992 | 16.57040 | 615 ft | 0 kts | 25° |